Time;durP1;ratioP1;P1;durP2;ratioP2;P2;SDS_P1;SDS_P2;PMS_P1;PMS_P2;Temp;Humidity;BMP_temperature;BMP_pressure;BME280_temperature;BME280_humidity;BME280_pressure;Samples;Min_cycle;Max_cycle;Signal;HPM_P1;HPM_P2
2022/07/09 06:31:53;;;;;;;7.57;3.22;;;;;;;15.31;60.07;97609.69;2085236;28;20925;-68
2022/07/09 06:32:54;;;;;;;10.80;3.35;;;;;;;15.52;59.80;97611.28;2080411;28;20201;-68
2022/07/09 06:33:58;;;;;;;7.50;2.90;;;;;;;15.60;59.22;97610.91;2084170;28;20191;-68
2022/07/09 06:35:02;;;;;;;5.85;2.92;;;;;;;15.64;59.48;97617.75;2078959;28;20195;-68
2022/07/09 06:36:04;;;;;;;10.90;3.33;;;;;;;15.78;58.68;97608.28;2082428;28;20199;-68
2022/07/09 06:37:05;;;;;;;6.10;2.53;;;;;;;15.89;58.44;97605.16;2080930;28;20222;-68
2022/07/09 06:38:07;;;;;;;10.32;3.10;;;;;;;15.88;58.65;97614.81;2081952;28;20229;-68
2022/07/09 06:40:29;;;;;;;8.30;2.90;;;;;;;16.29;57.50;97608.34;2075064;28;20205;-68
2022/07/09 07:03:43;;;;;;;15.15;2.65;;;;;;;17.51;53.40;97606.13;2092515;28;21090;-66
2022/07/09 07:04:44;;;;;;;7.78;2.13;;;;;;;17.24;55.04;97606.75;2094738;28;20283;-66
2022/07/09 07:05:46;;;;;;;7.90;2.13;;;;;;;17.26;54.72;97602.25;2094015;28;20199;-66
2022/07/09 07:06:48;;;;;;;5.47;2.50;;;;;;;17.40;54.50;97610.22;2081804;28;20557;-66
2022/07/09 07:07:49;;;;;;;12.40;2.55;;;;;;;17.50;55.01;97607.09;2070338;28;20554;-66
2022/07/09 07:08:51;;;;;;;4.40;2.20;;;;;;;17.61;54.85;97615.22;2070880;28;20650;-66
2022/07/09 07:09:52;;;;;;;10.55;2.70;;;;;;;17.53;54.09;97604.25;2070769;28;20206;-67
2022/07/09 07:32:16;;;;;;;10.43;2.35;;;;;;;18.23;51.92;97611.63;2087389;28;21075;-64
2022/07/09 07:33:18;;;;;;;7.20;2.03;;;;;;;18.44;51.96;97609.47;2087056;28;20193;-64
2022/07/09 07:34:22;;;;;;;7.13;2.20;;;;;;;18.47;51.36;97608.44;2086418;28;20223;-65
2022/07/09 07:35:23;;;;;;;8.57;2.40;;;;;;;18.28;51.20;97615.69;2086807;28;20200;-65
2022/07/09 07:36:26;;;;;;;6.90;2.10;;;;;;;18.37;50.82;97608.13;2086031;28;20197;-64
2022/07/09 07:37:28;;;;;;;4.95;1.98;;;;;;;18.58;50.24;97605.97;2085915;28;20224;-65
2022/07/09 07:38:30;;;;;;;10.25;2.28;;;;;;;18.88;50.12;97608.50;2086175;28;20279;-65
2022/07/09 07:39:32;;;;;;;9.85;1.80;;;;;;;19.27;49.25;97613.16;2087012;28;20235;-65
2022/07/09 07:40:33;;;;;;;8.98;2.10;;;;;;;19.23;48.22;97607.22;2086752;28;20205;-65
2022/07/09 07:57:21;;;;;;;8.65;1.50;;;;;;;20.23;44.70;97607.72;2077293;28;20565;-66
2022/07/09 07:58:23;;;;;;;7.53;2.10;;;;;;;19.92;45.42;97596.53;2070584;28;20198;-66
2022/07/09 07:59:24;;;;;;;4.28;1.90;;;;;;;19.57;46.09;97603.22;2070564;28;20228;-66
2022/07/09 08:00:26;;;;;;;13.48;2.42;;;;;;;20.11;45.38;97604.06;2069552;28;20268;-66
2022/07/09 08:01:28;;;;;;;4.65;1.73;;;;;;;20.41;44.59;97602.94;2070643;28;20577;-67
2022/07/09 08:02:30;;;;;;;5.70;1.23;;;;;;;20.64;44.45;97601.31;2062374;28;20606;-66
2022/07/09 08:03:31;;;;;;;9.02;1.60;;;;;;;20.88;43.81;97603.22;2062651;28;20238;-67
2022/07/09 08:04:34;;;;;;;5.78;1.38;;;;;;;20.87;44.30;97598.84;2061756;28;20205;-67
2022/07/09 08:05:35;;;;;;;5.53;1.15;;;;;;;20.81;44.69;97602.81;2061963;28;20212;-67
2022/07/09 08:06:37;;;;;;;3.25;1.45;;;;;;;20.91;44.16;97602.97;2061539;28;20748;-67
2022/07/09 08:07:38;;;;;;;5.05;1.50;;;;;;;20.87;44.58;97606.81;2061868;28;20562;-67
2022/07/09 08:08:40;;;;;;;4.55;0.82;;;;;;;21.16;44.63;97603.88;2069911;28;20198;-67
2022/07/09 08:27:34;;;;;;;9.68;1.63;;;;;;;21.94;43.39;97591.06;2085612;28;20577;-65
2022/07/09 08:28:35;;;;;;;2.42;1.00;;;;;;;22.13;43.78;97594.03;2082788;28;20197;-65
2022/07/09 08:29:37;;;;;;;5.55;1.30;;;;;;;21.84;43.76;97591.78;2080973;28;20722;-65
2022/07/09 08:30:39;;;;;;;7.75;1.42;;;;;;;21.87;42.87;97600.50;2080862;28;20646;-66
2022/07/09 08:31:40;;;;;;;10.18;1.40;;;;;;;21.60;43.65;97591.81;2081333;28;20197;-66
2022/07/09 08:32:42;;;;;;;7.40;1.50;;;;;;;21.58;43.25;97591.06;2075011;28;20219;-66
2022/07/09 08:33:44;;;;;;;6.63;1.70;;;;;;;21.76;43.51;97572.06;2072962;28;20199;-65
2022/07/09 08:34:46;;;;;;;4.13;1.33;;;;;;;21.72;43.28;97589.19;2073649;28;20727;-66
2022/07/09 08:35:47;;;;;;;4.35;1.27;;;;;;;21.56;43.32;97593.03;2068656;28;20198;-66
2022/07/09 08:36:48;;;;;;;9.13;1.23;;;;;;;21.88;43.22;97589.75;2068857;28;20202;-66
2022/07/09 08:37:50;;;;;;;8.45;1.25;;;;;;;22.13;42.50;97585.19;2070236;28;20202;-66
2022/07/09 08:38:51;;;;;;;9.13;1.50;;;;;;;22.06;42.68;97584.81;2072467;28;20401;-66
2022/07/09 08:39:53;;;;;;;8.32;1.83;;;;;;;21.93;43.12;97586.72;2072514;28;20198;-66
2022/07/09 08:40:56;;;;;;;4.75;1.30;;;;;;;21.95;43.41;97582.13;2073704;28;20197;-66
2022/07/09 08:59:01;;;;;;;5.57;1.55;;;;;;;22.45;42.63;97564.09;2084617;28;20567;-67
2022/07/09 09:00:05;;;;;;;4.70;1.17;;;;;;;22.27;42.33;97566.38;2080278;28;20201;-66
2022/07/09 09:01:07;;;;;;;7.53;2.40;;;;;;;22.23;41.72;97564.88;2079349;28;20285;-67
2022/07/09 09:02:09;;;;;;;5.25;1.52;;;;;;;22.12;41.64;97573.72;2074098;28;20218;-67
2022/07/09 09:03:11;;;;;;;6.63;1.60;;;;;;;22.72;40.84;97568.19;2074528;28;20210;-66
2022/07/09 09:04:12;;;;;;;5.45;1.42;;;;;;;22.85;40.45;97564.56;2073594;28;20197;-67
2022/07/09 09:05:15;;;;;;;5.10;1.30;;;;;;;23.03;39.81;97564.88;2071555;28;20190;-67
2022/07/09 09:06:21;;;;;;;7.03;1.30;;;;;;;23.38;39.95;97563.88;2074949;28;20193;-67
2022/07/09 09:07:23;;;;;;;5.63;1.50;;;;;;;23.18;40.04;97558.34;2071930;28;20233;-67
2022/07/09 09:08:24;;;;;;;5.90;1.35;;;;;;;22.24;41.94;97563.94;2074261;28;20189;-67
2022/07/09 09:09:26;;;;;;;6.03;1.77;;;;;;;22.46;42.35;97559.63;2075636;28;20204;-67
2022/07/09 09:10:28;;;;;;;4.57;1.20;;;;;;;22.69;41.49;97552.50;2074172;28;20208;-67
2022/07/09 09:25:26;;;;;;;3.30;0.90;;;;;;;23.88;37.19;97545.44;2083719;28;20560;-66
2022/07/09 09:26:28;;;;;;;4.45;1.00;;;;;;;24.25;36.92;97549.47;2078659;28;20197;-66
2022/07/09 09:27:30;;;;;;;6.65;1.60;;;;;;;24.08;36.75;97545.59;2078145;28;20675;-66
2022/07/09 09:28:31;;;;;;;2.70;1.08;;;;;;;24.78;36.41;97548.44;2078824;28;20937;-66
2022/07/09 09:29:39;;;;;;;13.43;1.60;;;;;;;25.21;35.87;97541.91;2078719;28;20208;-66
2022/07/09 09:30:43;;;;;;;5.35;1.42;;;;;;;24.30;36.77;97544.56;2078765;28;20235;-66
2022/07/09 09:31:45;;;;;;;4.32;1.40;;;;;;;24.64;36.25;97549.66;2077723;28;20702;-67
2022/07/09 09:33:01;;;;;;;2.47;1.00;;;;;;;24.48;36.80;97542.16;2078642;28;20577;-67
2022/07/09 09:34:06;;;;;;;4.30;1.33;;;;;;;25.22;36.06;97543.63;2078369;28;20216;-66
2022/07/09 09:35:08;;;;;;;7.63;1.25;;;;;;;25.84;35.04;97545.19;2076620;28;20308;-66
2022/07/09 09:36:09;;;;;;;5.40;1.45;;;;;;;25.78;34.59;97543.09;2078720;28;20197;-66
2022/07/09 09:37:11;;;;;;;6.65;1.55;;;;;;;25.62;34.87;97543.66;2078135;28;20213;-66
2022/07/09 09:38:12;;;;;;;5.40;1.20;;;;;;;26.12;34.37;97543.47;2076799;28;20236;-66
2022/07/09 09:39:28;;;;;;;3.33;1.45;;;;;;;23.94;35.96;97536.94;2078588;28;20200;-66
2022/07/09 09:40:30;;;;;;;5.82;1.30;;;;;;;24.43;35.70;97534.53;2078445;28;20208;-66
2022/07/09 09:41:33;;;;;;;3.08;1.20;;;;;;;25.34;35.09;97525.59;2076667;28;20201;-66
2022/07/09 09:42:41;;;;;;;2.63;1.00;;;;;;;25.10;35.08;97534.91;2078479;28;20193;-66
2022/07/09 09:43:43;;;;;;;2.28;0.90;;;;;;;24.06;36.01;97539.53;2077133;28;20197;-66
2022/07/09 09:44:48;;;;;;;4.78;1.15;;;;;;;24.02;36.99;97538.94;2077914;28;20232;-66
2022/07/09 09:45:58;;;;;;;3.83;1.08;;;;;;;24.35;37.21;97531.66;2078529;28;20671;-66
2022/07/09 09:46:59;;;;;;;2.40;0.90;;;;;;;24.74;36.42;97537.19;2076856;28;20217;-67
2022/07/09 09:48:04;;;;;;;20.65;11.48;;;;;;;25.34;35.69;97540.81;2077925;28;20197;-66
2022/07/09 09:49:07;;;;;;;13.32;6.35;;;;;;;25.88;34.41;97536.72;2077779;28;20197;-66
2022/07/09 09:50:13;;;;;;;21.95;13.10;;;;;;;26.31;33.76;97537.22;2078544;28;20212;-66
2022/07/09 09:51:19;;;;;;;19.38;8.57;;;;;;;26.84;33.00;97543.78;2077516;28;20204;-67
2022/07/09 09:52:21;;;;;;;4.82;0.90;;;;;;;26.81;32.13;97536.03;2078029;28;20248;-67
2022/07/09 09:53:23;;;;;;;3.80;1.02;;;;;;;27.15;31.79;97534.56;2077725;28;20185;-67
2022/07/09 09:54:25;;;;;;;5.47;1.20;;;;;;;27.17;30.89;97538.78;2078496;28;20200;-67
2022/07/09 09:55:26;;;;;;;3.92;1.10;;;;;;;27.13;31.48;97537.38;2078606;28;20200;-67
2022/07/09 09:56:28;;;;;;;2.00;0.88;;;;;;;27.19;30.98;97534.09;2077872;28;20213;-67
2022/07/09 09:57:30;;;;;;;3.53;1.00;;;;;;;27.29;29.97;97530.53;2077424;28;20315;-67
2022/07/09 09:58:33;;;;;;;4.00;1.10;;;;;;;27.01;30.46;97536.75;2077348;28;20205;-67
2022/07/09 09:59:40;;;;;;;3.55;1.00;;;;;;;27.33;29.83;97529.22;2077919;28;20232;-67
2022/07/09 10:00:42;;;;;;;2.42;0.80;;;;;;;27.13;29.36;97532.03;2078474;28;20219;-67
2022/07/09 10:01:44;;;;;;;9.20;1.10;;;;;;;27.44;28.95;97536.19;2078038;28;20200;-67
2022/07/09 10:02:47;;;;;;;4.28;1.15;;;;;;;27.41;29.55;97531.16;2078659;28;20637;-67
2022/07/09 10:03:50;;;;;;;2.05;0.80;;;;;;;25.49;33.57;97518.06;2077615;28;20197;-67
2022/07/09 10:04:51;;;;;;;3.05;1.02;;;;;;;26.14;32.27;97517.41;2077617;28;20225;-67
2022/07/09 10:05:53;;;;;;;6.18;1.95;;;;;;;25.96;31.87;97519.97;2077957;28;20197;-67
2022/07/09 10:06:54;;;;;;;10.50;4.13;;;;;;;25.94;33.61;97521.94;2077416;28;20837;-67
2022/07/09 10:07:56;;;;;;;19.98;13.27;;;;;;;25.88;33.68;97527.88;2078660;28;20194;-66
2022/07/09 10:08:57;;;;;;;7.72;3.53;;;;;;;25.67;34.75;97518.16;2078399;28;20197;-67
2022/07/09 10:09:59;;;;;;;7.22;3.88;;;;;;;25.63;35.17;97522.13;2078676;28;20193;-69
2022/07/09 10:11:01;;;;;;;5.20;1.33;;;;;;;25.65;35.13;97521.97;2077863;28;20193;-66
2022/07/09 10:12:02;;;;;;;2.63;0.90;;;;;;;25.57;34.69;97518.19;2077242;28;20217;-68
2022/07/09 10:27:28;;;;;;;4.18;1.00;;;;;;;26.80;32.79;97506.72;2099589;27;20563;-66
2022/07/09 10:28:40;;;;;;;3.13;0.90;;;;;;;27.63;31.66;97514.59;2091949;28;20204;-67
2022/07/09 10:29:58;;;;;;;4.97;0.90;;;;;;;27.72;30.38;97506.59;2095080;28;20199;-67
2022/07/09 10:31:07;;;;;;;2.67;0.82;;;;;;;27.35;30.82;97511.97;2092494;28;20629;-66
2022/07/09 10:32:09;;;;;;;3.22;0.90;;;;;;;27.88;30.97;97505.88;2093883;28;20224;-66
2022/07/09 10:33:22;;;;;;;3.95;1.08;;;;;;;27.13;30.38;97501.72;2099262;28;20231;-66
2022/07/09 10:34:47;;;;;;;2.47;0.93;;;;;;;26.43;31.37;97496.88;2098133;28;20364;-66
2022/07/09 10:35:51;;;;;;;4.22;0.90;;;;;;;26.08;31.54;97499.28;2092108;28;20184;-68
2022/07/09 10:37:00;;;;;;;9.25;1.30;;;;;;;26.11;32.04;97500.81;2094176;28;20223;-67
2022/07/09 10:38:02;;;;;;;4.57;1.13;;;;;;;25.75;31.70;97499.59;2108996;28;20197;-66
2022/07/09 10:39:12;;;;;;;3.22;1.08;;;;;;;25.60;31.96;97495.69;2112053;28;20194;-66
2022/07/09 10:40:18;;;;;;;5.78;1.17;;;;;;;25.73;32.08;97512.25;2094129;28;20337;-67
2022/07/09 10:41:23;;;;;;;3.30;0.80;;;;;;;26.04;32.34;97505.84;2090095;28;20196;-66
2022/07/09 10:42:25;;;;;;;5.15;1.17;;;;;;;25.86;33.49;97511.94;2092893;28;20634;-66
2022/07/09 10:43:52;;;;;;;7.25;1.05;;;;;;;25.57;32.89;97503.97;2091647;28;20192;-66
2022/07/09 10:44:53;;;;;;;6.28;1.40;;;;;;;25.37;34.06;97493.31;2093109;28;20210;-66
2022/07/09 10:45:55;;;;;;;3.67;1.10;;;;;;;25.10;34.71;97504.63;2094701;28;20215;-66
2022/07/09 10:46:57;;;;;;;3.00;0.90;;;;;;;25.21;35.31;97493.00;2094266;28;20239;-66
2022/07/09 10:48:00;;;;;;;5.43;1.27;;;;;;;25.31;35.54;97498.34;2091591;28;20563;-66
2022/07/09 10:49:02;;;;;;;3.42;1.20;;;;;;;25.27;35.12;97501.28;2092785;28;20199;-66
2022/07/09 10:50:05;;;;;;;8.85;1.15;;;;;;;25.08;35.11;97498.63;2092636;28;20689;-66
2022/07/09 10:51:06;;;;;;;4.90;1.20;;;;;;;25.08;35.78;97498.63;2091516;28;20614;-66
2022/07/09 10:52:08;;;;;;;3.33;1.00;;;;;;;24.79;34.37;97504.75;2090784;28;20208;-67
2022/07/09 10:53:11;;;;;;;4.25;0.80;;;;;;;25.03;34.54;97485.66;2090256;28;20208;-69
2022/07/09 10:54:16;;;;;;;10.73;3.78;;;;;;;25.23;34.27;97505.22;2093360;28;20207;-68
2022/07/09 10:55:19;;;;;;;3.60;1.17;;;;;;;25.32;34.49;97508.03;2091920;28;20594;-71
2022/07/09 10:56:22;;;;;;;2.95;1.00;;;;;;;25.26;34.32;97496.09;2091757;28;20210;-71
2022/07/09 10:57:23;;;;;;;7.00;1.20;;;;;;;25.53;34.10;97503.41;2090973;28;20216;-72
2022/07/09 10:58:25;;;;;;;3.22;1.15;;;;;;;25.78;33.36;97498.47;2091935;28;20338;-71
2022/07/09 10:59:32;;;;;;;3.08;0.82;;;;;;;26.21;32.71;97499.78;2090468;28;20192;-71
2022/07/09 11:00:33;;;;;;;3.50;1.08;;;;;;;26.81;32.26;97506.56;2094234;28;20192;-71
2022/07/09 11:01:35;;;;;;;3.45;0.90;;;;;;;27.21;31.99;97508.00;2094321;28;20589;-71
2022/07/09 11:02:37;;;;;;;4.03;1.00;;;;;;;27.07;32.48;97503.19;2094076;28;20211;-71
2022/07/09 11:03:38;;;;;;;7.88;1.25;;;;;;;27.02;32.01;97508.13;2090528;28;20192;-70
2022/07/09 11:04:40;;;;;;;4.60;1.10;;;;;;;26.99;31.81;97501.22;2092099;28;20196;-69
2022/07/09 11:05:45;;;;;;;7.78;1.10;;;;;;;27.19;31.12;97506.47;2090952;28;20205;-67
2022/07/09 11:06:47;;;;;;;4.65;0.93;;;;;;;27.29;31.64;97509.06;2092659;28;20567;-67
2022/07/09 11:07:55;;;;;;;2.92;1.20;;;;;;;27.12;31.07;97503.56;2092407;28;20581;-66
2022/07/09 11:08:57;;;;;;;6.25;1.13;;;;;;;27.89;30.59;97511.09;2091424;28;20199;-67
2022/07/09 11:09:58;;;;;;;6.95;1.27;;;;;;;28.42;29.84;97503.88;2091677;28;20254;-66
2022/07/09 11:11:00;;;;;;;3.30;1.00;;;;;;;28.80;29.33;97503.56;2091411;28;20417;-66
2022/07/09 11:12:01;;;;;;;7.47;1.00;;;;;;;28.40;29.25;97505.88;2090918;28;20224;-66
2022/07/09 11:13:06;;;;;;;2.53;1.00;;;;;;;27.21;31.07;97508.00;2091976;28;20196;-66
2022/07/09 11:14:08;;;;;;;7.20;1.55;;;;;;;26.91;31.98;97505.69;2092205;28;20215;-66
2022/07/09 11:15:17;;;;;;;3.85;1.10;;;;;;;26.78;32.29;97501.53;2092946;28;20197;-66
2022/07/09 11:16:23;;;;;;;5.18;0.80;;;;;;;26.55;32.63;97493.84;2091776;28;20527;-66
2022/07/09 11:17:25;;;;;;;5.55;1.23;;;;;;;26.22;32.77;97500.59;2091150;28;20222;-66
2022/07/09 11:18:28;;;;;;;4.38;1.05;;;;;;;26.19;33.74;97504.41;2091990;28;20192;-66
2022/07/09 11:19:30;;;;;;;2.80;0.90;;;;;;;26.03;33.64;97501.47;2090507;28;20192;-66
2022/07/09 11:20:40;;;;;;;6.55;1.10;;;;;;;26.36;33.35;97501.97;2092674;28;20231;-66
2022/07/09 11:21:42;;;;;;;6.32;1.00;;;;;;;26.21;33.09;97499.78;2091009;28;20674;-67
2022/07/09 11:22:47;;;;;;;8.30;1.02;;;;;;;25.78;34.15;97495.78;2090978;28;20200;-66
2022/07/09 11:23:53;;;;;;;3.85;1.20;;;;;;;25.94;33.80;97503.22;2091131;28;20282;-66
2022/07/09 11:24:55;;;;;;;6.95;1.00;;;;;;;25.69;33.99;97497.50;2092067;28;20567;-67
2022/07/09 11:25:56;;;;;;;3.30;1.02;;;;;;;26.03;33.88;97504.16;2090196;28;20201;-66
2022/07/09 11:27:04;;;;;;;2.90;1.00;;;;;;;25.41;33.51;97499.22;2088456;28;20216;-66
2022/07/09 11:28:06;;;;;;;2.17;0.90;;;;;;;25.42;34.44;97492.88;2090617;28;20200;-66
2022/07/09 11:29:16;;;;;;;2.90;0.98;;;;;;;25.05;34.62;97483.72;2092004;28;20200;-67
2022/07/09 11:30:18;;;;;;;3.50;1.20;;;;;;;25.29;34.33;97490.44;2090604;28;20191;-66
2022/07/09 11:31:20;;;;;;;6.70;1.17;;;;;;;25.44;34.20;97498.91;2091001;28;20196;-66
2022/07/09 11:32:21;;;;;;;6.47;1.25;;;;;;;25.32;34.11;97492.00;2091546;28;20222;-66
2022/07/09 11:33:23;;;;;;;4.30;0.90;;;;;;;25.62;34.76;97496.38;2092176;28;20206;-66
2022/07/09 11:34:25;;;;;;;3.95;1.00;;;;;;;25.56;33.78;97503.13;2093829;28;20207;-66
2022/07/09 11:35:31;;;;;;;2.60;1.10;;;;;;;25.82;32.93;97496.34;2091109;28;20196;-67
2022/07/09 11:36:37;;;;;;;2.75;1.08;;;;;;;25.48;33.02;97491.47;2091285;28;20845;-68
2022/07/09 11:37:44;;;;;;;3.30;0.88;;;;;;;25.16;32.99;97489.91;2089734;28;20583;-67
2022/07/09 11:38:50;;;;;;;5.95;1.00;;;;;;;26.05;32.73;97492.34;2095653;28;20199;-67
2022/07/09 11:39:52;;;;;;;1.95;0.90;;;;;;;26.94;31.70;97494.66;2092685;28;20206;-68
2022/07/09 11:41:01;;;;;;;2.50;1.08;;;;;;;27.32;31.57;97484.63;2085517;28;20219;-68
2022/07/09 11:42:04;;;;;;;4.40;1.00;;;;;;;26.98;31.87;97480.81;2085562;28;20216;-67
2022/07/09 11:43:15;;;;;;;3.63;1.00;;;;;;;27.09;32.02;97481.56;2086023;28;20212;-67
2022/07/09 11:44:24;;;;;;;6.82;1.20;;;;;;;26.55;31.88;97479.59;2088252;28;20280;-68
2022/07/09 11:45:27;;;;;;;3.10;0.90;;;;;;;26.23;32.84;97479.06;2088650;28;20207;-67
2022/07/09 11:46:29;;;;;;;3.78;1.00;;;;;;;26.53;33.01;97479.75;2088150;28;20185;-67
2022/07/09 11:47:32;;;;;;;1.67;0.80;;;;;;;26.64;32.27;97481.41;2087246;28;20212;-68
2022/07/09 11:48:34;;;;;;;2.88;1.00;;;;;;;26.10;33.61;97481.22;2086402;28;20197;-68
2022/07/09 11:49:40;;;;;;;7.28;4.00;;;;;;;26.08;33.29;97473.34;2084146;28;20200;-70
2022/07/09 11:50:44;;;;;;;18.42;11.35;;;;;;;25.43;34.25;97463.34;2085286;28;20201;-68
2022/07/09 11:51:46;;;;;;;36.30;21.90;;;;;;;25.52;34.12;97474.16;2086427;28;20223;-68
2022/07/09 11:52:50;;;;;;;16.88;7.40;;;;;;;26.15;33.23;97465.56;2086407;28;20197;-68
2022/07/09 11:53:51;;;;;;;4.00;1.42;;;;;;;26.32;32.75;97469.31;2086457;28;20204;-68
2022/07/09 11:55:01;;;;;;;3.67;1.00;;;;;;;26.94;32.09;97471.38;2085180;28;20652;-68
2022/07/09 11:56:06;;;;;;;2.97;1.08;;;;;;;27.30;31.48;97471.38;2086238;28;20193;-70
2022/07/09 11:57:19;;;;;;;2.63;0.95;;;;;;;27.99;30.88;97476.09;2084844;28;20707;-69
2022/07/09 11:58:20;;;;;;;5.05;1.80;;;;;;;28.31;28.94;97474.63;2086272;28;20207;-69
2022/07/09 11:59:27;;;;;;;6.05;1.10;;;;;;;28.65;28.46;97473.75;2104060;28;20209;-69
2022/07/09 12:00:31;;;;;;;3.60;0.90;;;;;;;28.55;29.01;97470.38;2099729;28;20282;-68
2022/07/09 12:01:32;;;;;;;5.53;1.67;;;;;;;28.28;29.86;97465.03;2087636;28;20680;-68
2022/07/09 12:02:36;;;;;;;3.42;0.90;;;;;;;28.41;30.60;97469.97;2087325;28;20212;-68
2022/07/09 12:03:47;;;;;;;3.05;0.93;;;;;;;28.73;29.88;97468.41;2085141;28;20331;-68
2022/07/09 12:04:49;;;;;;;5.60;0.88;;;;;;;29.00;29.34;97466.47;2087302;28;20292;-68
2022/07/09 12:05:51;;;;;;;5.50;0.95;;;;;;;29.10;28.90;97466.31;2086866;28;20656;-68
2022/07/09 12:06:52;;;;;;;1.48;0.80;;;;;;;29.29;28.12;97468.75;2084975;28;20236;-68
2022/07/09 12:07:54;;;;;;;3.20;1.05;;;;;;;29.95;28.20;97462.47;2086189;28;20874;-68
2022/07/09 12:09:03;;;;;;;5.07;0.90;;;;;;;29.74;28.14;97461.13;2086005;28;20201;-68
2022/07/09 12:10:07;;;;;;;3.25;0.70;;;;;;;29.40;28.24;97462.16;2084898;28;20301;-68
2022/07/09 12:11:08;;;;;;;3.47;1.13;;;;;;;29.03;28.46;97462.59;2084780;28;20196;-68
2022/07/09 12:12:10;;;;;;;5.20;1.10;;;;;;;29.08;28.13;97458.44;2085616;28;20239;-68
2022/07/09 12:13:11;;;;;;;3.55;1.25;;;;;;;28.97;28.46;97448.00;2087014;28;20200;-68
2022/07/09 12:14:13;;;;;;;3.15;1.08;;;;;;;29.49;28.37;97463.84;2103976;28;20195;-68
2022/07/09 12:15:16;;;;;;;4.70;0.95;;;;;;;29.07;28.21;97458.59;2100691;28;20210;-68
2022/07/09 12:16:18;;;;;;;3.85;1.10;;;;;;;29.16;28.21;97447.66;2086581;28;20204;-68
2022/07/09 12:17:22;;;;;;;3.35;0.90;;;;;;;29.46;27.93;97447.22;2092900;28;20998;-68
2022/07/09 12:18:24;;;;;;;4.13;0.95;;;;;;;29.67;27.12;97445.84;2095026;28;20232;-68
2022/07/09 12:19:26;;;;;;;3.53;0.73;;;;;;;30.09;26.20;97447.47;2088027;28;20536;-68
2022/07/09 12:20:30;;;;;;;4.00;0.90;;;;;;;30.12;26.02;97444.44;2086059;28;20192;-68
2022/07/09 12:21:31;;;;;;;3.55;1.15;;;;;;;29.23;27.68;97438.94;2087979;28;20639;-68
2022/07/09 12:22:33;;;;;;;3.83;1.35;;;;;;;29.52;26.79;97434.94;2087887;28;20643;-68
2022/07/09 12:23:34;;;;;;;2.47;1.10;;;;;;;29.95;26.23;97441.78;2088106;28;20193;-68
2022/07/09 12:24:36;;;;;;;2.83;0.95;;;;;;;29.20;26.62;97437.41;2087174;28;20422;-68
2022/07/09 12:25:37;;;;;;;2.13;0.70;;;;;;;29.51;26.52;97435.94;2085296;28;20683;-68
2022/07/09 12:26:38;;;;;;;2.13;0.90;;;;;;;30.12;26.12;97441.75;2083490;28;20432;-68
2022/07/09 12:28:00;;;;;;;1.70;0.80;;;;;;;30.58;25.79;97433.00;2093180;28;20456;-69
2022/07/09 12:29:01;;;;;;;2.10;0.90;;;;;;;30.64;25.26;97439.53;2091985;28;20430;-69
2022/07/09 12:30:03;;;;;;;4.10;1.33;;;;;;;30.41;25.44;97435.75;2085363;28;20924;-68
2022/07/09 12:31:05;;;;;;;2.20;0.90;;;;;;;29.62;25.81;97430.22;2086122;28;20421;-68
2022/07/09 12:32:07;;;;;;;3.70;1.02;;;;;;;29.04;25.94;97432.91;2085836;28;20471;-68
2022/07/09 12:33:08;;;;;;;3.45;0.90;;;;;;;29.38;25.95;97423.00;2100629;28;20653;-68
2022/07/09 12:34:09;;;;;;;3.83;1.07;;;;;;;28.51;27.78;97422.31;2104396;28;20199;-68
2022/07/09 12:35:12;;;;;;;2.35;0.90;;;;;;;29.70;26.50;97422.13;2087055;28;20431;-68
2022/07/09 12:36:16;;;;;;;2.70;1.00;;;;;;;29.65;25.87;97417.25;2084897;28;20201;-68
2022/07/09 12:37:38;;;;;;;1.83;0.85;;;;;;;29.87;25.76;97419.41;2084773;28;20231;-68
2022/07/09 12:38:39;;;;;;;2.30;0.93;;;;;;;29.86;25.92;97420.41;2085974;28;20197;-68
2022/07/09 12:39:41;;;;;;;1.50;0.70;;;;;;;28.93;26.41;97412.53;2085104;28;20710;-68
2022/07/09 12:40:49;;;;;;;2.15;0.80;;;;;;;28.42;27.57;97401.00;2084270;28;20215;-68
2022/07/09 12:41:50;;;;;;;2.85;0.95;;;;;;;28.50;28.02;97417.94;2085240;28;20204;-68
2022/07/09 12:42:52;;;;;;;3.05;0.80;;;;;;;27.38;28.82;97400.91;2085083;28;20200;-68
2022/07/09 12:43:54;;;;;;;3.80;1.08;;;;;;;27.96;29.13;97407.50;2085659;28;20200;-68
2022/07/09 12:44:55;;;;;;;4.47;1.00;;;;;;;27.81;29.65;97401.88;2086381;28;20662;-68
2022/07/09 12:45:58;;;;;;;3.70;0.90;;;;;;;27.28;30.92;97408.19;2085977;28;20200;-68
2022/07/09 12:46:59;;;;;;;2.95;0.90;;;;;;;27.41;31.17;97405.13;2086283;28;20216;-68
2022/07/09 12:48:01;;;;;;;7.55;1.20;;;;;;;27.86;30.50;97404.09;2085516;28;20197;-68
2022/07/09 12:49:03;;;;;;;2.70;0.90;;;;;;;28.77;29.71;97408.00;2086990;28;20654;-67
2022/07/09 12:50:05;;;;;;;4.03;1.10;;;;;;;28.76;29.28;97406.31;2087533;28;20575;-68
2022/07/09 12:51:06;;;;;;;5.00;1.00;;;;;;;29.57;28.58;97402.97;2085764;28;20211;-68
2022/07/09 12:52:08;;;;;;;3.75;1.02;;;;;;;30.00;27.07;97408.13;2085195;28;20216;-69
2022/07/09 12:53:09;;;;;;;1.95;0.90;;;;;;;29.99;26.72;97401.06;2086256;28;20207;-69
2022/07/09 12:54:10;;;;;;;3.95;1.05;;;;;;;29.70;27.39;97400.63;2086060;28;20193;-68
2022/07/09 12:55:12;;;;;;;1.10;0.70;;;;;;;29.60;27.74;97399.97;2087420;28;20243;-67
2022/07/09 12:56:14;;;;;;;2.75;0.82;;;;;;;30.09;28.12;97399.84;2087995;28;20207;-68
2022/07/09 12:57:19;;;;;;;5.33;0.90;;;;;;;30.53;26.94;97401.19;2084907;28;20223;-68
2022/07/09 12:58:21;;;;;;;2.45;0.90;;;;;;;30.65;26.61;97398.09;2086612;28;20424;-69
2022/07/09 12:59:22;;;;;;;3.97;1.10;;;;;;;30.40;27.01;97401.72;2086003;28;20200;-68
2022/07/09 13:00:24;;;;;;;2.80;0.80;;;;;;;30.18;26.52;97397.94;2084685;28;20200;-69
2022/07/09 13:01:25;;;;;;;6.53;0.90;;;;;;;29.75;26.30;97397.38;2085695;28;20192;-70
2022/07/09 13:02:27;;;;;;;8.53;1.80;;;;;;;30.01;26.43;97407.13;2086561;28;20987;-70
2022/07/09 13:03:28;;;;;;;13.70;9.20;;;;;;;30.18;26.44;97407.88;2087587;28;20425;-69
2022/07/09 13:04:50;;;;;;;26.03;17.33;;;;;;;30.53;26.37;97400.34;2087049;28;20200;-69
2022/07/09 13:05:53;;;;;;;4.70;2.23;;;;;;;30.42;26.73;97394.31;2086346;28;20774;-69
2022/07/09 13:06:54;;;;;;;15.80;9.87;;;;;;;30.97;28.92;97399.75;2085786;28;20449;-69
2022/07/09 13:07:56;;;;;;;6.53;1.03;;;;;;;30.25;26.66;97390.03;2084553;28;20426;-69
2022/07/09 13:08:58;;;;;;;5.23;1.10;;;;;;;29.89;27.13;97393.19;2086390;28;20442;-69
2022/07/09 13:10:00;;;;;;;2.40;1.10;;;;;;;30.44;26.57;97399.53;2087156;28;20442;-69
2022/07/09 13:11:01;;;;;;;2.03;1.10;;;;;;;30.60;27.07;97387.84;2084431;28;20430;-69
2022/07/09 13:12:03;;;;;;;2.63;0.80;;;;;;;30.39;26.26;97383.06;2086513;28;20987;-69
2022/07/09 13:13:05;;;;;;;2.53;1.10;;;;;;;30.49;26.38;97383.69;2086185;28;20449;-69
2022/07/09 13:14:07;;;;;;;2.40;1.07;;;;;;;30.18;26.94;97380.97;2086290;28;21103;-70
2022/07/09 13:15:08;;;;;;;4.90;1.40;;;;;;;30.08;26.12;97387.41;2086746;28;20924;-70
2022/07/09 13:16:10;;;;;;;2.07;1.00;;;;;;;29.85;26.18;97384.56;2085455;28;20430;-70
2022/07/09 13:17:11;;;;;;;4.90;1.23;;;;;;;29.30;26.88;97384.34;2085703;28;20457;-70
2022/07/09 13:18:31;;;;;;;6.03;1.57;;;;;;;29.40;26.74;97377.97;2086223;28;20457;-69
2022/07/09 13:19:33;;;;;;;8.63;1.33;;;;;;;28.75;27.89;97379.63;2085670;28;20858;-69
2022/07/09 13:20:34;;;;;;;3.13;1.10;;;;;;;28.54;28.18;97382.72;2087591;28;20422;-69
2022/07/09 13:21:46;;;;;;;2.33;1.07;;;;;;;28.90;28.42;97387.84;2086163;28;20459;-70
2022/07/09 13:22:47;;;;;;;5.07;1.20;;;;;;;28.80;27.86;97378.09;2084687;28;20430;-69
2022/07/09 13:23:49;;;;;;;3.45;1.00;;;;;;;28.57;28.50;97377.00;2086292;28;20959;-69
2022/07/09 13:24:51;;;;;;;2.17;1.00;;;;;;;28.61;28.22;97375.69;2086735;28;20204;-69
2022/07/09 13:25:52;;;;;;;1.80;0.90;;;;;;;28.32;28.90;97377.78;2082799;28;20232;-70
2022/07/09 13:26:54;;;;;;;1.93;0.90;;;;;;;28.43;28.69;97382.03;2095277;28;20636;-70
2022/07/09 13:27:56;;;;;;;4.03;1.17;;;;;;;28.28;28.09;97376.44;2095486;28;20833;-69
2022/07/09 13:28:57;;;;;;;2.45;1.00;;;;;;;28.06;29.24;97377.88;2086289;28;21047;-70
2022/07/09 13:29:59;;;;;;;3.27;1.10;;;;;;;28.64;28.07;97381.56;2087238;28;20213;-69
2022/07/09 13:31:00;;;;;;;6.83;1.70;;;;;;;29.01;27.93;97376.75;2084932;28;20433;-69
2022/07/09 13:32:03;;;;;;;3.10;1.02;;;;;;;29.20;27.20;97375.59;2085746;28;20513;-70
2022/07/09 13:33:04;;;;;;;2.38;1.13;;;;;;;29.25;27.53;97375.91;2086597;28;20204;-69